createdAt,value
2022-09-15T00:00:25.693Z,4.30
2022-09-15T00:05:19.075Z,4.43
2022-09-15T00:10:12.320Z,4.97
2022-09-15T00:15:08.498Z,5.60
2022-09-15T00:20:00.653Z,5.20
2022-09-15T00:24:52.815Z,4.97
2022-09-15T00:29:44.981Z,4.97
2022-09-15T00:34:37.030Z,6.73
2022-09-15T00:39:29.108Z,5.53
2022-09-15T00:44:36.408Z,6.40
2022-09-15T00:49:32.096Z,8.40
2022-09-15T00:54:38.927Z,7.07
2022-09-15T00:59:33.368Z,7.43
2022-09-15T01:04:26.041Z,4.80
2022-09-15T01:09:33.398Z,4.60
2022-09-15T01:14:26.669Z,6.70
2022-09-15T01:19:39.893Z,7.07
2022-09-15T01:24:43.783Z,6.13
2022-09-15T01:29:41.746Z,6.10
2022-09-15T01:34:41.649Z,7.57
2022-09-15T01:39:39.757Z,4.13
2022-09-15T01:44:49.579Z,4.77
2022-09-15T01:49:51.324Z,6.93
2022-09-15T01:54:49.280Z,6.17
2022-09-15T01:59:41.518Z,6.50
2022-09-15T02:05:06.166Z,10.53
2022-09-15T02:10:36.101Z,7.60
2022-09-15T02:15:36.139Z,7.47
2022-09-15T02:20:42.570Z,8.87
2022-09-15T02:25:44.183Z,9.37
2022-09-15T02:30:42.031Z,8.63
2022-09-15T02:35:36.498Z,8.20
2022-09-15T02:40:29.619Z,9.37
2022-09-15T02:45:23.178Z,9.53
2022-09-15T02:50:15.193Z,8.27
2022-09-15T02:55:07.633Z,8.63
2022-09-15T03:00:15.044Z,8.63
2022-09-15T03:05:08.589Z,8.20
2022-09-15T03:10:00.672Z,7.23
2022-09-15T03:14:52.764Z,8.73
2022-09-15T03:19:45.522Z,6.33
2022-09-15T03:24:38.444Z,7.73
2022-09-15T03:29:31.052Z,8.47
2022-09-15T03:34:23.081Z,6.30
2022-09-15T03:39:15.458Z,7.10
2022-09-15T03:44:07.625Z,7.37
2022-09-15T03:48:59.672Z,9.43
2022-09-15T03:53:51.896Z,9.17
2022-09-15T03:58:44.017Z,7.70
2022-09-15T04:03:40.341Z,6.90
2022-09-15T04:08:35.439Z,8.57
2022-09-15T04:13:28.804Z,7.90
2022-09-15T04:18:21.017Z,7.80
2022-09-15T04:23:13.018Z,9.70
2022-09-15T04:28:05.190Z,7.53
2022-09-15T04:32:57.274Z,9.20
2022-09-15T04:37:49.880Z,8.53
2022-09-15T04:42:41.966Z,10.67
2022-09-15T04:47:34.042Z,10.23
2022-09-15T04:52:26.397Z,14.57
2022-09-15T04:57:18.512Z,12.47
2022-09-15T05:02:10.586Z,8.70
2022-09-15T05:07:02.712Z,10.07
2022-09-15T05:11:54.817Z,11.83
2022-09-15T05:16:47.003Z,13.60
2022-09-15T05:21:39.240Z,10.67
2022-09-15T05:26:31.850Z,11.00
2022-09-15T05:31:26.854Z,9.40
2022-09-15T05:36:21.468Z,11.13
2022-09-15T05:41:18.433Z,14.67
2022-09-15T05:46:11.322Z,10.93
2022-09-15T05:51:04.100Z,15.73
2022-09-15T05:55:57.847Z,13.10
2022-09-15T06:00:50.859Z,13.80
2022-09-15T06:05:43.302Z,12.20
2022-09-15T06:10:35.751Z,12.40
2022-09-15T06:15:28.044Z,12.10
2022-09-15T06:20:21.009Z,9.30
2022-09-15T06:25:13.377Z,10.60
2022-09-15T06:30:06.636Z,11.03
2022-09-15T06:34:58.741Z,13.83
2022-09-15T06:39:51.184Z,11.63
2022-09-15T06:44:43.295Z,10.97
2022-09-15T06:49:35.396Z,11.17
2022-09-15T06:54:27.542Z,7.33
2022-09-15T06:59:19.626Z,9.50
2022-09-15T07:04:11.892Z,9.03
2022-09-15T07:09:05.794Z,8.03
2022-09-15T07:13:58.719Z,9.63
2022-09-15T07:18:51.645Z,12.87
2022-09-15T07:23:44.494Z,10.40
2022-09-15T07:28:37.463Z,9.40
2022-09-15T07:33:29.625Z,8.67
2022-09-15T07:38:22.132Z,11.70
2022-09-15T07:43:14.267Z,8.17
2022-09-15T07:48:06.547Z,9.00
2022-09-15T07:52:58.673Z,10.20
2022-09-15T07:58:01.176Z,7.03
2022-09-15T08:02:53.850Z,6.20
2022-09-15T08:07:46.098Z,6.40
2022-09-15T08:12:38.225Z,6.87
2022-09-15T08:17:30.306Z,5.63
2022-09-15T08:22:22.400Z,3.87
2022-09-15T08:27:14.590Z,11.43
2022-09-15T08:32:07.452Z,7.37
2022-09-15T08:36:59.559Z,8.90
2022-09-15T08:41:56.314Z,10.37
2022-09-15T08:47:24.050Z,7.20
2022-09-15T08:52:40.980Z,7.97
2022-09-15T08:57:32.975Z,9.43
2022-09-15T09:02:50.156Z,7.37
2022-09-15T09:07:54.481Z,6.47
2022-09-15T09:13:08.693Z,6.63
2022-09-15T09:18:00.919Z,6.73
2022-09-15T09:22:54.571Z,5.07
2022-09-15T09:27:48.125Z,6.90
2022-09-15T09:33:11.678Z,8.00
2022-09-15T09:38:04.332Z,8.47
2022-09-15T09:42:56.735Z,4.27
2022-09-15T09:47:49.145Z,4.93
2022-09-15T09:52:41.512Z,10.03
2022-09-15T09:57:40.531Z,5.63
2022-09-15T10:02:47.671Z,5.23
2022-09-15T10:07:46.370Z,6.63
2022-09-15T10:12:42.016Z,8.30
2022-09-15T10:17:44.041Z,8.60
2022-09-15T10:22:38.919Z,6.00
2022-09-15T10:27:36.175Z,3.57
2022-09-15T10:32:29.763Z,1.73
2022-09-15T10:37:31.623Z,3.10
2022-09-15T10:42:48.091Z,4.83
2022-09-15T10:47:59.184Z,4.97
2022-09-15T10:53:15.099Z,2.60
2022-09-15T10:58:31.177Z,5.20
2022-09-15T11:03:23.322Z,4.17
2022-09-15T11:08:25.074Z,3.70
2022-09-15T11:13:34.667Z,3.00
2022-09-15T11:18:45.295Z,3.03
2022-09-15T11:23:48.135Z,6.43
2022-09-15T11:28:57.116Z,4.43
2022-09-15T11:33:59.979Z,6.37
2022-09-15T11:39:16.657Z,4.20
2022-09-15T11:44:18.551Z,2.13
2022-09-15T11:49:22.566Z,4.87
2022-09-15T11:54:22.653Z,6.30
2022-09-15T11:59:26.977Z,1.63
2022-09-15T12:04:25.719Z,4.40
2022-09-15T12:09:20.106Z,3.93
2022-09-15T12:14:17.513Z,3.93
2022-09-15T12:19:34.143Z,2.87
2022-09-15T12:24:45.939Z,4.67
2022-09-15T12:29:42.086Z,3.10
2022-09-15T12:34:37.408Z,2.33
2022-09-15T12:39:46.093Z,3.20
2022-09-15T12:44:57.600Z,3.27
2022-09-15T12:49:57.673Z,3.23
2022-09-15T12:55:03.635Z,5.47
2022-09-15T13:00:35.284Z,2.50
2022-09-15T13:05:42.362Z,4.20
2022-09-15T13:10:39.494Z,3.97
2022-09-15T13:15:33.663Z,3.10
2022-09-15T13:20:34.276Z,2.70
2022-09-15T13:25:29.682Z,3.10
2022-09-15T13:30:24.569Z,3.13
2022-09-15T13:35:52.505Z,4.57
2022-09-15T13:40:53.433Z,3.70
2022-09-15T13:46:04.471Z,3.33
2022-09-15T13:51:03.429Z,3.30
2022-09-15T13:55:56.050Z,2.50
2022-09-15T14:01:21.300Z,2.97
2022-09-15T14:06:33.666Z,3.33
2022-09-15T14:11:31.773Z,1.90
2022-09-15T14:16:27.843Z,2.70
2022-09-15T14:21:23.121Z,3.40
2022-09-15T14:26:17.662Z,3.00
2022-09-15T14:31:09.757Z,1.83
2022-09-15T14:36:02.844Z,2.50
2022-09-15T14:40:56.968Z,3.23
2022-09-15T14:45:56.405Z,4.03
2022-09-15T14:51:01.965Z,3.10
2022-09-15T14:56:04.322Z,1.67
2022-09-15T15:01:17.474Z,4.77
2022-09-15T15:06:30.514Z,3.53
2022-09-15T15:11:23.277Z,3.20
2022-09-15T15:16:28.467Z,2.63
2022-09-15T15:21:47.778Z,1.33
2022-09-15T15:26:52.805Z,1.20
2022-09-15T15:31:46.739Z,3.87
2022-09-15T15:36:38.902Z,1.13
2022-09-15T15:41:36.159Z,3.70
2022-09-15T15:46:57.532Z,1.40
2022-09-15T15:51:49.864Z,2.13
2022-09-15T15:56:42.770Z,3.20
2022-09-15T16:01:34.937Z,2.77
2022-09-15T16:06:27.198Z,1.50
2022-09-15T16:11:20.900Z,2.27
2022-09-15T16:16:16.455Z,5.63
2022-09-15T16:21:19.901Z,1.80
2022-09-15T16:26:17.893Z,3.07
2022-09-15T16:31:13.132Z,3.43
2022-09-15T16:36:08.560Z,1.87
2022-09-15T16:41:01.265Z,2.10
2022-09-15T16:45:53.560Z,2.87
2022-09-15T16:51:20.881Z,2.93
2022-09-15T16:55:58.978Z,1.33
2022-09-15T17:00:52.884Z,2.23
2022-09-15T17:05:48.722Z,2.67
2022-09-15T17:10:41.664Z,3.37
2022-09-15T17:15:39.066Z,3.83
2022-09-15T17:20:34.775Z,1.67
2022-09-15T17:25:31.780Z,3.00
2022-09-15T17:30:27.102Z,2.90
2022-09-15T17:35:25.142Z,2.53
2022-09-15T17:40:19.273Z,4.10
2022-09-15T17:45:22.889Z,3.27
2022-09-15T17:50:16.223Z,2.87
2022-09-15T17:55:31.598Z,2.53
2022-09-15T18:00:25.682Z,3.10
2022-09-15T18:05:35.186Z,2.90
2022-09-15T18:10:28.250Z,5.30
2022-09-15T18:15:27.227Z,4.93
2022-09-15T18:20:27.816Z,6.20
2022-09-15T18:25:31.964Z,3.40
2022-09-15T18:30:26.386Z,3.03
2022-09-15T18:35:20.734Z,5.63
2022-09-15T18:40:15.248Z,4.93
2022-09-15T18:45:09.736Z,3.07
2022-09-15T18:50:05.381Z,4.33
2022-09-15T18:54:59.705Z,3.10
2022-09-15T18:59:51.760Z,4.70
2022-09-15T19:04:44.374Z,3.60
2022-09-15T19:09:36.863Z,4.17
2022-09-15T19:14:30.206Z,4.03
2022-09-15T19:19:23.456Z,3.93
2022-09-15T19:24:18.402Z,7.00
2022-09-15T19:29:11.021Z,3.67
2022-09-15T19:34:04.583Z,4.67
2022-09-15T19:38:58.154Z,4.60
2022-09-15T19:43:50.273Z,3.77
2022-09-15T19:48:45.669Z,4.47
2022-09-15T19:53:42.375Z,5.30
2022-09-15T19:58:34.549Z,5.03
2022-09-15T20:03:30.512Z,3.23
2022-09-15T20:08:22.990Z,3.37
2022-09-15T20:13:16.723Z,3.93
2022-09-15T20:18:11.022Z,2.57
2022-09-15T20:23:03.125Z,3.00
2022-09-15T20:27:55.172Z,2.53
2022-09-15T20:32:47.511Z,3.83
2022-09-15T20:37:39.933Z,7.80
2022-09-15T20:42:31.977Z,4.93
2022-09-15T20:47:24.107Z,3.87
2022-09-15T20:52:16.172Z,4.93
2022-09-15T20:57:09.457Z,6.60
2022-09-15T21:02:02.144Z,5.87
2022-09-15T21:06:54.238Z,7.87
2022-09-15T21:11:50.143Z,4.73
2022-09-15T21:16:45.043Z,4.30
2022-09-15T21:21:37.175Z,3.73
2022-09-15T21:27:00.419Z,4.30
2022-09-15T21:31:52.978Z,5.70
2022-09-15T21:36:45.493Z,4.17
2022-09-15T21:41:37.648Z,1.93
2022-09-15T21:46:31.521Z,1.90
2022-09-15T21:51:25.570Z,1.80
2022-09-15T21:56:17.882Z,3.80
2022-09-15T22:01:21.001Z,5.77
2022-09-15T22:06:13.565Z,1.63
2022-09-15T22:11:08.686Z,2.27
2022-09-15T22:16:06.181Z,3.40
2022-09-15T22:21:13.525Z,2.13
2022-09-15T22:26:08.824Z,1.67
2022-09-15T22:31:02.618Z,1.00
2022-09-15T22:35:54.955Z,4.80
2022-09-15T22:40:47.140Z,1.90
2022-09-15T22:45:39.223Z,1.80
2022-09-15T22:50:31.347Z,4.13
2022-09-15T22:55:25.632Z,1.63
2022-09-15T23:00:18.135Z,3.10
2022-09-15T23:05:11.026Z,2.30
2022-09-15T23:10:03.438Z,2.67
2022-09-15T23:14:55.478Z,2.63
2022-09-15T23:19:47.515Z,5.33
2022-09-15T23:24:39.481Z,1.47
2022-09-15T23:29:32.246Z,1.83
2022-09-15T23:34:24.422Z,2.47
2022-09-15T23:39:16.650Z,2.63
2022-09-15T23:44:08.790Z,3.10
2022-09-15T23:49:00.874Z,2.13
2022-09-15T23:53:53.129Z,2.33
2022-09-15T23:58:45.297Z,0.93
